Terminal Aerodrome Forecast
Issued by NWS Austin/San Antonio, TX

Home | Current Version | Previous Version | Text Only | Print | Product List | Glossary On
Versions: 1 2 3 4 5 6 7 8 9 10 11 12 13 14 15 16
090
FTUS44 KEWX 272320
TAFSAT
TAF
KSAT 272320Z 2800/2906 16014KT P6SM SCT050
     FM280500 15011KT P6SM OVC012
      TEMPO 2808/2812 5SM BR BKN008
     FM281400 15009KT P6SM BKN015 OVC025
     FM281500 16008KT P6SM BKN025 BKN040
     FM281700 14010KT P6SM BKN040=

USA.gov is the U.S. government's official web portal to all federal, state and local government web resources and services.